createdAt,value
2022-11-29T00:01:35.704Z,18.70
2022-11-29T00:04:02.984Z,12.68
2022-11-29T00:06:32.916Z,17.20
2022-11-29T00:09:04.403Z,14.52
2022-11-29T00:11:53.818Z,14.93
2022-11-29T00:14:21.959Z,13.82
2022-11-29T00:17:05.879Z,16.80
2022-11-29T00:19:34.590Z,15.45
2022-11-29T00:22:02.073Z,17.80
2022-11-29T00:24:31.751Z,14.40
2022-11-29T00:26:58.779Z,13.27
2022-11-29T00:29:25.697Z,18.90
2022-11-29T00:31:52.452Z,16.15
2022-11-29T00:34:19.268Z,18.60
2022-11-29T00:36:46.160Z,13.43
2022-11-29T00:39:13.269Z,12.38
2022-11-29T00:41:40.496Z,11.88
2022-11-29T00:44:07.297Z,13.93
2022-11-29T00:46:34.324Z,18.60
2022-11-29T00:49:01.158Z,15.45
2022-11-29T00:51:27.885Z,12.80
2022-11-29T00:53:54.608Z,16.05
2022-11-29T00:56:21.312Z,12.63
2022-11-29T00:58:49.374Z,11.02
2022-11-29T01:01:16.366Z,14.30
2022-11-29T01:03:43.549Z,12.07
2022-11-29T01:06:14.048Z,11.45
2022-11-29T01:08:40.999Z,15.40
2022-11-29T01:11:14.959Z,12.20
2022-11-29T01:13:42.652Z,12.65
2022-11-29T01:16:10.392Z,14.00
2022-11-29T01:18:38.230Z,14.35
2022-11-29T01:21:18.405Z,13.93
2022-11-29T01:23:46.013Z,10.98
2022-11-29T01:26:19.910Z,13.35
2022-11-29T01:28:51.280Z,16.20
2022-11-29T01:31:25.214Z,14.15
2022-11-29T01:33:58.226Z,12.23
2022-11-29T01:36:25.472Z,14.93
2022-11-29T01:38:53.563Z,14.75
2022-11-29T01:41:28.017Z,11.82
2022-11-29T01:44:06.180Z,14.45
2022-11-29T01:46:38.625Z,13.50
2022-11-29T01:49:15.036Z,12.32
2022-11-29T01:51:48.564Z,11.32
2022-11-29T01:54:15.460Z,17.95
2022-11-29T01:56:45.661Z,16.83
2022-11-29T01:59:16.455Z,9.13
2022-11-29T02:01:43.313Z,15.00
2022-11-29T02:04:10.597Z,11.95
2022-11-29T02:06:39.193Z,12.70
2022-11-29T02:09:20.032Z,11.90
2022-11-29T02:12:17.680Z,13.52
2022-11-29T02:15:14.089Z,10.52
2022-11-29T02:18:15.557Z,10.57
2022-11-29T02:21:11.984Z,13.43
2022-11-29T02:24:18.853Z,12.20
2022-11-29T02:27:06.652Z,13.85
2022-11-29T02:30:00.852Z,12.52
2022-11-29T02:32:48.496Z,14.68
2022-11-29T02:35:39.389Z,19.38
2022-11-29T02:38:52.612Z,9.80
2022-11-29T02:41:28.926Z,16.70
2022-11-29T02:44:12.736Z,14.05
2022-11-29T02:46:48.034Z,12.35
2022-11-29T02:49:49.477Z,25.15
2022-11-29T02:52:32.694Z,14.95
2022-11-29T02:55:13.736Z,18.90
2022-11-29T02:58:07.567Z,16.00
2022-11-29T03:00:39.448Z,16.77
2022-11-29T03:03:46.710Z,29.02
2022-11-29T03:06:40.892Z,12.15
2022-11-29T03:09:30.352Z,17.83
2022-11-29T03:12:19.716Z,14.65
2022-11-29T03:15:33.174Z,17.30
2022-11-29T03:18:57.761Z,14.60
2022-11-29T03:21:48.322Z,15.35
2022-11-29T03:24:37.376Z,13.98
2022-11-29T03:27:11.749Z,15.63
2022-11-29T03:29:47.898Z,16.65
2022-11-29T03:32:55.201Z,13.30
2022-11-29T03:35:40.858Z,14.18
2022-11-29T03:38:37.286Z,14.10
2022-11-29T03:41:21.472Z,20.98
2022-11-29T03:44:01.500Z,22.00
2022-11-29T03:46:31.101Z,17.23
2022-11-29T03:49:09.167Z,20.67
2022-11-29T03:52:03.104Z,13.30
2022-11-29T03:54:57.361Z,15.15
2022-11-29T03:57:35.752Z,12.52
2022-11-29T04:00:10.130Z,15.00
2022-11-29T04:03:03.025Z,15.15
2022-11-29T04:05:36.689Z,15.25
2022-11-29T04:08:38.508Z,16.67
2022-11-29T04:11:17.048Z,19.40
2022-11-29T04:14:17.654Z,14.82
2022-11-29T04:17:17.347Z,17.13
2022-11-29T04:20:27.891Z,14.60
2022-11-29T04:23:21.833Z,14.40
2022-11-29T04:26:11.587Z,14.88
2022-11-29T04:28:59.244Z,54.58
2022-11-29T04:31:49.488Z,26.98
2022-11-29T04:34:35.469Z,13.20
2022-11-29T04:37:37.340Z,11.98
2022-11-29T04:40:42.677Z,15.55
2022-11-29T04:43:49.858Z,29.58
2022-11-29T04:46:56.627Z,19.05
2022-11-29T04:49:26.121Z,12.85
2022-11-29T04:52:20.685Z,11.70
2022-11-29T04:55:10.730Z,18.13
2022-11-29T04:57:46.696Z,11.77
2022-11-29T05:00:23.246Z,12.02
2022-11-29T05:03:07.300Z,16.52
2022-11-29T05:06:33.129Z,47.13
2022-11-29T05:09:43.195Z,18.20
2022-11-29T05:12:47.874Z,12.43
2022-11-29T05:15:45.954Z,30.10
2022-11-29T05:18:37.960Z,20.63
2022-11-29T05:21:04.628Z,9.55
2022-11-29T05:24:03.468Z,15.68
2022-11-29T05:26:45.043Z,15.95
2022-11-29T05:29:28.708Z,11.77
2022-11-29T05:32:25.920Z,14.63
2022-11-29T05:35:03.872Z,11.52
2022-11-29T05:37:49.015Z,13.98
2022-11-29T05:40:40.903Z,14.07
2022-11-29T05:43:37.937Z,12.05
2022-11-29T05:46:31.589Z,11.15
2022-11-29T05:49:25.747Z,12.70
2022-11-29T05:52:08.164Z,12.38
2022-11-29T05:54:44.604Z,12.82
2022-11-29T05:57:39.160Z,11.25
2022-11-29T06:00:07.685Z,14.25
2022-11-29T06:02:58.609Z,12.80
2022-11-29T06:05:39.881Z,11.27
2022-11-29T06:08:18.458Z,10.63
2022-11-29T06:11:14.491Z,11.32
2022-11-29T06:14:34.319Z,11.07
2022-11-29T06:17:11.058Z,10.43
2022-11-29T06:20:17.217Z,13.18
2022-11-29T06:23:35.171Z,12.50
2022-11-29T06:26:19.727Z,11.43
2022-11-29T06:29:25.951Z,13.38
2022-11-29T06:32:10.973Z,12.95
2022-11-29T06:34:44.147Z,13.77
2022-11-29T06:37:33.165Z,15.63
2022-11-29T06:40:00.246Z,15.77
2022-11-29T06:42:26.994Z,12.35
2022-11-29T06:44:54.319Z,15.45
2022-11-29T06:47:34.739Z,16.67
2022-11-29T06:50:27.122Z,14.65
2022-11-29T06:53:17.835Z,13.10
2022-11-29T06:55:48.985Z,9.30
2022-11-29T06:58:56.033Z,12.00
2022-11-29T07:01:37.880Z,10.48
2022-11-29T07:04:33.272Z,11.70
2022-11-29T07:07:00.867Z,7.32
2022-11-29T07:09:34.672Z,10.88
2022-11-29T07:12:01.829Z,10.43
2022-11-29T07:14:28.908Z,9.48
2022-11-29T07:17:23.163Z,9.40
2022-11-29T07:20:12.757Z,14.05
2022-11-29T07:23:08.607Z,9.75
2022-11-29T07:25:43.707Z,12.43
2022-11-29T07:28:52.900Z,15.73
2022-11-29T07:31:31.573Z,12.55
2022-11-29T07:34:13.468Z,10.52
2022-11-29T07:36:51.956Z,14.95
2022-11-29T07:39:59.325Z,11.20
2022-11-29T07:42:31.888Z,15.60
2022-11-29T07:45:28.288Z,16.98
2022-11-29T07:47:55.067Z,17.50
2022-11-29T07:50:22.298Z,11.98
2022-11-29T07:52:49.869Z,14.00
2022-11-29T07:55:19.719Z,13.38
2022-11-29T07:57:47.895Z,12.77
2022-11-29T08:00:15.989Z,11.82
2022-11-29T08:02:43.165Z,10.60
2022-11-29T08:05:10.526Z,11.05
2022-11-29T08:07:38.959Z,13.30
2022-11-29T08:10:10.877Z,11.88
2022-11-29T08:12:44.225Z,10.80
2022-11-29T08:15:11.415Z,13.43
2022-11-29T08:17:39.511Z,11.15
2022-11-29T08:20:07.835Z,9.32
2022-11-29T08:22:34.887Z,9.18
2022-11-29T08:25:02.005Z,12.82
2022-11-29T08:27:31.749Z,12.05
2022-11-29T08:29:58.688Z,9.60
2022-11-29T08:32:26.930Z,8.98
2022-11-29T08:34:53.672Z,13.00
2022-11-29T08:37:20.845Z,12.90
2022-11-29T08:39:47.564Z,9.85
2022-11-29T08:42:14.304Z,11.20
2022-11-29T08:44:41.228Z,8.65
2022-11-29T08:47:28.400Z,13.90
2022-11-29T08:50:04.373Z,10.30
2022-11-29T08:52:55.793Z,11.90
2022-11-29T08:55:26.512Z,11.10
2022-11-29T08:57:56.187Z,9.27
2022-11-29T09:00:22.991Z,7.28
2022-11-29T09:02:49.830Z,9.02
2022-11-29T09:05:16.760Z,7.07
2022-11-29T09:07:44.075Z,10.18
2022-11-29T09:10:12.205Z,11.02
2022-11-29T09:12:40.671Z,8.93
2022-11-29T09:15:10.773Z,6.85
2022-11-29T09:17:37.725Z,5.85
2022-11-29T09:20:06.220Z,6.10
2022-11-29T09:22:32.951Z,9.15
2022-11-29T09:24:59.694Z,5.97
2022-11-29T09:27:26.453Z,4.53
2022-11-29T09:29:53.226Z,8.25
2022-11-29T09:32:19.997Z,8.35
2022-11-29T09:34:47.025Z,5.15
2022-11-29T09:37:13.980Z,5.70
2022-11-29T09:39:41.738Z,14.18
2022-11-29T09:42:43.309Z,6.60
2022-11-29T09:45:18.570Z,10.93
2022-11-29T09:48:03.376Z,11.65
2022-11-29T09:51:28.196Z,6.03
2022-11-29T09:54:05.611Z,8.23
2022-11-29T09:56:52.952Z,6.88
2022-11-29T09:59:42.809Z,6.63
2022-11-29T10:02:21.840Z,6.63
2022-11-29T10:05:09.370Z,6.93
2022-11-29T10:07:57.532Z,4.00
2022-11-29T10:10:32.987Z,8.45
2022-11-29T10:13:17.765Z,7.07
2022-11-29T10:15:47.900Z,7.40
2022-11-29T10:18:31.429Z,3.58
2022-11-29T10:21:06.968Z,6.88
2022-11-29T10:23:41.121Z,5.10
2022-11-29T10:26:08.395Z,5.25
2022-11-29T10:28:37.040Z,2.13
2022-11-29T10:31:42.935Z,3.88
2022-11-29T10:34:22.554Z,3.70
2022-11-29T10:36:57.452Z,3.70
2022-11-29T10:39:44.696Z,3.95
2022-11-29T10:42:41.522Z,3.55
2022-11-29T10:45:28.601Z,2.45
2022-11-29T10:48:02.697Z,1.92
2022-11-29T10:50:33.570Z,7.68
2022-11-29T10:53:10.849Z,1.35
2022-11-29T10:55:50.515Z,0.73
2022-11-29T10:58:27.964Z,0.50
2022-11-29T11:01:07.371Z,1.20
2022-11-29T11:03:48.929Z,0.43
2022-11-29T11:06:21.480Z,1.00
2022-11-29T11:09:11.489Z,0.85
2022-11-29T11:11:39.903Z,0.40
2022-11-29T11:14:24.600Z,0.77
2022-11-29T11:16:52.175Z,4.20
2022-11-29T11:19:30.928Z,0.45
2022-11-29T11:22:01.490Z,0.75
2022-11-29T11:24:42.129Z,0.38
2022-11-29T11:27:09.007Z,2.95
2022-11-29T11:29:42.721Z,0.55
2022-11-29T11:32:20.069Z,0.50
2022-11-29T11:35:22.129Z,1.17
2022-11-29T11:37:57.658Z,0.47
2022-11-29T11:40:29.762Z,0.40
2022-11-29T11:43:03.175Z,0.57
2022-11-29T11:45:36.733Z,0.52
2022-11-29T11:48:12.756Z,1.33
2022-11-29T11:50:53.288Z,1.45
2022-11-29T11:53:40.285Z,0.82
2022-11-29T11:56:10.881Z,2.03
2022-11-29T11:58:43.466Z,1.88
2022-11-29T12:01:13.175Z,1.45
2022-11-29T12:03:53.292Z,1.60
2022-11-29T12:06:52.267Z,1.65
2022-11-29T12:09:49.146Z,2.15
2022-11-29T12:12:19.060Z,2.33
2022-11-29T12:15:03.499Z,1.35
2022-11-29T12:17:49.115Z,1.35
2022-11-29T12:20:38.519Z,1.73
2022-11-29T12:23:14.067Z,1.80
2022-11-29T12:25:58.579Z,1.80
2022-11-29T12:28:39.132Z,1.55
2022-11-29T12:31:20.761Z,1.35
2022-11-29T12:34:26.064Z,2.03
2022-11-29T12:37:06.968Z,1.98
2022-11-29T12:40:07.327Z,1.85
2022-11-29T12:43:00.193Z,1.92
2022-11-29T12:45:32.511Z,1.67
2022-11-29T12:48:20.659Z,3.40
2022-11-29T12:51:47.271Z,1.33
2022-11-29T12:54:38.703Z,3.72
2022-11-29T12:57:24.217Z,2.00
2022-11-29T13:00:12.502Z,1.75
2022-11-29T13:03:26.615Z,1.85
2022-11-29T13:05:59.232Z,1.10
2022-11-29T13:09:02.012Z,0.63
2022-11-29T13:11:37.974Z,2.23
2022-11-29T13:14:43.407Z,0.98
2022-11-29T13:18:01.167Z,1.40
2022-11-29T13:21:01.360Z,1.08
2022-11-29T13:26:42.116Z,5.82
2022-11-29T13:29:16.268Z,3.47
2022-11-29T13:31:44.608Z,6.65
2022-11-29T13:34:23.662Z,4.93
2022-11-29T13:37:12.551Z,2.28
2022-11-29T13:40:17.510Z,3.03
2022-11-29T13:43:04.212Z,1.08
2022-11-29T13:45:56.046Z,1.00
2022-11-29T13:48:36.364Z,1.52
2022-11-29T13:51:24.642Z,0.85
2022-11-29T13:53:52.251Z,0.55
2022-11-29T13:56:46.735Z,0.40
2022-11-29T13:59:30.284Z,0.43
2022-11-29T14:01:58.544Z,1.00
2022-11-29T14:04:31.410Z,1.13
2022-11-29T14:07:19.750Z,0.50
2022-11-29T14:10:03.980Z,0.70
2022-11-29T14:12:49.675Z,0.80
2022-11-29T14:15:33.872Z,0.50
2022-11-29T14:18:40.755Z,0.50
2022-11-29T14:21:07.942Z,0.40
2022-11-29T14:23:36.345Z,0.38
2022-11-29T14:26:03.101Z,1.30
2022-11-29T14:28:47.799Z,1.38
2022-11-29T14:31:55.145Z,2.47
2022-11-29T14:34:33.281Z,2.35
2022-11-29T14:37:15.180Z,1.52
2022-11-29T14:39:49.323Z,2.35
2022-11-29T14:42:22.764Z,1.70
2022-11-29T14:45:06.392Z,2.45
2022-11-29T14:47:44.510Z,5.38
2022-11-29T14:50:31.506Z,1.90
2022-11-29T14:52:58.869Z,4.15
2022-11-29T14:55:25.499Z,1.80
2022-11-29T14:58:05.906Z,1.83
2022-11-29T15:00:54.262Z,2.53
2022-11-29T15:03:47.427Z,2.63
2022-11-29T15:06:25.558Z,4.90
2022-11-29T15:11:51.125Z,1.77
2022-11-29T15:14:57.229Z,3.67
2022-11-29T15:18:14.976Z,3.35
2022-11-29T15:21:10.492Z,4.07
2022-11-29T15:23:42.661Z,5.05
2022-11-29T15:26:27.161Z,4.10
2022-11-29T15:28:53.870Z,6.32
2022-11-29T15:31:21.563Z,10.63
2022-11-29T15:33:49.828Z,4.72
2022-11-29T15:36:21.166Z,3.53
2022-11-29T15:38:59.235Z,1.83
2022-11-29T15:41:35.628Z,2.28
2022-11-29T15:44:18.164Z,2.63
2022-11-29T15:46:44.876Z,2.55
2022-11-29T15:49:24.175Z,4.15
2022-11-29T15:51:57.748Z,2.72
2022-11-29T15:54:34.436Z,7.35
2022-11-29T15:57:11.215Z,3.55
2022-11-29T16:00:01.325Z,2.47
2022-11-29T16:02:31.847Z,3.33
2022-11-29T16:05:09.194Z,4.93
2022-11-29T16:07:37.304Z,4.00
2022-11-29T16:10:13.597Z,1.98
2022-11-29T16:13:03.081Z,4.03
2022-11-29T16:15:39.424Z,3.97
2022-11-29T16:18:15.448Z,2.78
2022-11-29T16:20:42.647Z,3.75
2022-11-29T16:23:14.589Z,5.28
2022-11-29T16:25:58.896Z,3.92
2022-11-29T16:28:33.296Z,4.45
2022-11-29T16:31:00.299Z,6.38
2022-11-29T16:33:27.529Z,7.22
2022-11-29T16:36:19.436Z,5.00
2022-11-29T16:38:50.663Z,3.53
2022-11-29T16:41:31.554Z,5.10
2022-11-29T16:43:59.547Z,2.05
2022-11-29T16:46:30.542Z,2.72
2022-11-29T16:49:02.530Z,2.88
